createdAt,value
2018-06-23T00:00:10.572Z,20.30
2018-06-23T00:02:38.659Z,18.00
2018-06-23T00:05:06.743Z,23.63
2018-06-23T00:07:34.828Z,21.43
2018-06-23T00:10:02.908Z,23.57
2018-06-23T00:12:30.995Z,23.47
2018-06-23T00:14:59.089Z,26.87
2018-06-23T00:17:27.183Z,23.80
2018-06-23T00:19:55.267Z,20.00
2018-06-23T00:22:23.462Z,20.90
2018-06-23T00:24:51.560Z,24.30
2018-06-23T00:27:19.644Z,16.53
2018-06-23T00:29:47.735Z,24.17
2018-06-23T00:32:15.822Z,25.40
2018-06-23T00:34:44.016Z,27.90
2018-06-23T00:37:12.095Z,27.67
2018-06-23T00:39:40.179Z,19.50
2018-06-23T00:42:08.443Z,28.20
2018-06-23T00:44:36.826Z,27.47
2018-06-23T00:47:05.088Z,34.10
2018-06-23T00:49:33.419Z,32.00
2018-06-23T00:52:01.861Z,28.50
2018-06-23T00:54:30.033Z,25.13
2018-06-23T00:56:58.124Z,22.70
2018-06-23T00:59:31.707Z,23.77
2018-06-23T01:01:59.783Z,26.97
2018-06-23T01:04:27.919Z,20.60
2018-06-23T01:06:56.004Z,25.13
2018-06-23T01:09:24.203Z,16.30
2018-06-23T01:11:52.328Z,26.10
2018-06-23T01:14:20.455Z,22.47
2018-06-23T01:16:48.603Z,25.70
2018-06-23T01:19:16.696Z,25.47
2018-06-23T01:21:44.776Z,34.47
2018-06-23T01:24:12.878Z,24.70
2018-06-23T01:26:40.835Z,22.33
2018-06-23T01:29:08.916Z,18.70
2018-06-23T01:31:37.007Z,24.37
2018-06-23T01:34:05.125Z,23.23
2018-06-23T01:36:33.579Z,19.03
2018-06-23T01:39:01.728Z,15.93
2018-06-23T01:41:29.843Z,24.13
2018-06-23T01:43:57.924Z,16.83
2018-06-23T01:46:26.031Z,17.70
2018-06-23T01:48:54.383Z,15.07
2018-06-23T01:51:22.515Z,15.10
2018-06-23T01:53:50.623Z,17.23
2018-06-23T01:56:18.771Z,22.47
2018-06-23T01:58:46.878Z,18.13
2018-06-23T02:01:15.067Z,16.40
2018-06-23T02:03:42.941Z,17.93
2018-06-23T02:06:11.063Z,14.60
2018-06-23T02:08:39.155Z,15.30
2018-06-23T02:11:07.407Z,22.10
2018-06-23T02:13:35.604Z,14.13
2018-06-23T02:16:09.186Z,20.37
2018-06-23T02:18:42.584Z,22.43
2018-06-23T02:21:16.150Z,19.77
2018-06-23T02:23:49.771Z,17.77
2018-06-23T02:26:23.303Z,14.53
2018-06-23T02:28:56.796Z,19.37
2018-06-23T02:31:30.371Z,20.23
2018-06-23T02:34:03.823Z,15.97
2018-06-23T02:36:31.908Z,14.37
2018-06-23T02:39:06.492Z,17.00
2018-06-23T02:41:34.571Z,21.70
2018-06-23T02:44:02.859Z,12.57
2018-06-23T02:46:30.988Z,18.17
2018-06-23T02:48:59.089Z,13.10
2018-06-23T02:51:27.179Z,15.83
2018-06-23T02:53:55.292Z,14.27
2018-06-23T02:56:23.484Z,19.50
2018-06-23T02:58:51.593Z,12.87
2018-06-23T03:01:19.738Z,15.60
2018-06-23T03:03:48.032Z,11.50
2018-06-23T03:06:16.138Z,13.27
2018-06-23T03:08:44.199Z,14.53
2018-06-23T03:11:12.319Z,11.47
2018-06-23T03:13:40.421Z,16.40
2018-06-23T03:16:08.499Z,11.97
2018-06-23T03:18:36.584Z,10.97
2018-06-23T03:21:04.458Z,14.50
2018-06-23T03:23:32.549Z,12.27
2018-06-23T03:26:00.648Z,10.33
2018-06-23T03:28:28.876Z,18.07
2018-06-23T03:30:56.986Z,13.63
2018-06-23T03:33:25.105Z,12.93
2018-06-23T03:35:53.175Z,10.43
2018-06-23T03:38:21.429Z,12.60
2018-06-23T03:40:49.527Z,13.33
2018-06-23T03:43:17.616Z,12.90
2018-06-23T03:45:45.739Z,15.00
2018-06-23T03:48:13.843Z,11.70
2018-06-23T03:50:41.932Z,10.63
2018-06-23T03:53:10.052Z,10.90
2018-06-23T03:55:38.192Z,12.10
2018-06-23T03:58:06.302Z,10.10
2018-06-23T04:00:34.520Z,11.40
2018-06-23T04:03:02.688Z,11.50
2018-06-23T04:05:31.167Z,11.33
2018-06-23T04:07:59.264Z,14.17
2018-06-23T04:10:27.165Z,15.60
2018-06-23T04:12:55.303Z,8.20
2018-06-23T04:15:23.184Z,11.33
2018-06-23T04:17:51.274Z,7.50
2018-06-23T04:20:19.384Z,10.90
2018-06-23T04:22:47.500Z,11.57
2018-06-23T04:25:15.600Z,10.23
2018-06-23T04:27:43.745Z,5.47
2018-06-23T04:30:11.861Z,10.83
2018-06-23T04:32:39.976Z,12.00
2018-06-23T04:35:07.832Z,9.20
2018-06-23T04:37:35.931Z,6.40
2018-06-23T04:40:04.349Z,8.53
2018-06-23T04:42:32.435Z,8.50
2018-06-23T04:45:00.524Z,11.20
2018-06-23T04:47:28.644Z,9.57
2018-06-23T04:49:57.291Z,9.50
2018-06-23T04:52:25.380Z,7.90
2018-06-23T04:54:53.480Z,11.33
2018-06-23T04:57:21.579Z,10.40
2018-06-23T04:59:49.690Z,10.10
2018-06-23T05:02:17.801Z,14.30
2018-06-23T05:04:45.917Z,10.03
2018-06-23T05:07:14.064Z,7.13
2018-06-23T05:09:42.170Z,6.17
2018-06-23T05:12:10.432Z,5.43
2018-06-23T05:14:38.567Z,6.43
2018-06-23T05:17:06.700Z,5.23
2018-06-23T05:19:35.088Z,9.23
2018-06-23T05:22:03.185Z,6.73
2018-06-23T05:24:31.283Z,7.77
2018-06-23T05:26:59.376Z,11.23
2018-06-23T05:29:27.484Z,8.47
2018-06-23T05:31:55.596Z,6.00
2018-06-23T05:34:23.715Z,8.60
2018-06-23T05:36:51.592Z,8.03
2018-06-23T05:39:19.707Z,9.60
2018-06-23T05:41:47.800Z,8.03
2018-06-23T05:44:15.899Z,7.17
2018-06-23T05:46:44.004Z,6.53
2018-06-23T05:49:12.115Z,5.50
2018-06-23T05:51:40.202Z,6.50
2018-06-23T05:54:08.479Z,3.50
2018-06-23T05:56:36.564Z,3.20
2018-06-23T05:59:04.728Z,8.30
2018-06-23T06:01:32.852Z,5.60
2018-06-23T06:04:00.960Z,8.80
2018-06-23T06:06:29.069Z,7.93
2018-06-23T06:08:57.184Z,6.63
2018-06-23T06:11:25.291Z,5.60
2018-06-23T06:13:53.456Z,12.03
2018-06-23T06:16:28.780Z,8.03
2018-06-23T06:18:56.867Z,3.80
2018-06-23T06:21:25.252Z,5.53
2018-06-23T06:23:53.414Z,6.43
2018-06-23T06:26:21.473Z,6.80
2018-06-23T06:28:49.552Z,8.33
2018-06-23T06:31:17.629Z,5.97
2018-06-23T06:33:45.723Z,4.23
2018-06-23T06:36:13.824Z,5.37
2018-06-23T06:38:41.922Z,4.73
2018-06-23T06:41:09.997Z,4.40
2018-06-23T06:43:38.104Z,5.30
2018-06-23T06:46:06.215Z,4.97
2018-06-23T06:48:34.311Z,3.90
2018-06-23T06:51:02.415Z,7.20
2018-06-23T06:53:30.530Z,5.97
2018-06-23T06:55:58.644Z,6.87
2018-06-23T06:58:26.715Z,5.70
2018-06-23T07:00:54.787Z,9.27
2018-06-23T07:03:22.899Z,5.57
2018-06-23T07:05:51.084Z,4.90
2018-06-23T07:08:18.987Z,4.00
2018-06-23T07:10:47.056Z,4.10
2018-06-23T07:13:15.164Z,7.17
2018-06-23T07:15:43.276Z,7.97
2018-06-23T07:18:11.368Z,4.70
2018-06-23T07:20:39.454Z,7.40
2018-06-23T07:23:07.564Z,8.40
2018-06-23T07:25:35.669Z,6.33
2018-06-23T07:28:03.796Z,5.00
2018-06-23T07:30:31.916Z,3.03
2018-06-23T07:33:00.003Z,8.00
2018-06-23T07:35:28.123Z,5.03
2018-06-23T07:37:56.228Z,5.20
2018-06-23T07:40:24.104Z,6.90
2018-06-23T07:42:52.242Z,4.90
2018-06-23T07:45:20.386Z,5.70
2018-06-23T07:47:48.495Z,5.50
2018-06-23T07:50:16.575Z,6.60
2018-06-23T07:52:44.756Z,5.07
2018-06-23T07:55:12.884Z,5.47
2018-06-23T07:57:40.974Z,4.80
2018-06-23T08:00:09.068Z,4.73
2018-06-23T08:02:37.174Z,5.93
2018-06-23T08:05:05.295Z,7.13
2018-06-23T08:07:33.378Z,5.53
2018-06-23T08:10:01.547Z,5.53
2018-06-23T08:12:29.644Z,8.20
2018-06-23T08:14:57.835Z,7.67
2018-06-23T08:17:26.117Z,4.30
2018-06-23T08:19:54.231Z,4.40
2018-06-23T08:22:22.338Z,5.80
2018-06-23T08:24:50.464Z,4.70
2018-06-23T08:27:18.587Z,5.87
2018-06-23T08:29:46.777Z,8.23
2018-06-23T08:32:14.875Z,5.60
2018-06-23T08:34:42.971Z,3.47
2018-06-23T08:37:11.141Z,4.60
2018-06-23T08:39:39.256Z,4.00
2018-06-23T08:42:07.346Z,7.33
2018-06-23T08:44:35.488Z,7.27
2018-06-23T08:47:03.567Z,3.87
2018-06-23T08:49:31.714Z,4.17
2018-06-23T08:51:59.864Z,3.87
2018-06-23T08:54:27.970Z,4.50
2018-06-23T08:56:56.114Z,3.27
2018-06-23T08:59:24.183Z,6.63
2018-06-23T09:01:52.306Z,4.10
2018-06-23T09:04:20.915Z,5.23
2018-06-23T09:06:49.012Z,6.63
2018-06-23T09:09:17.089Z,10.93
2018-06-23T09:11:45.192Z,7.30
2018-06-23T09:14:13.300Z,17.30
2018-06-23T09:16:41.455Z,17.13
2018-06-23T09:19:09.497Z,23.33
2018-06-23T09:21:37.636Z,25.73
2018-06-23T09:24:05.856Z,20.40
2018-06-23T09:26:34.027Z,22.63
2018-06-23T09:29:02.115Z,26.67
2018-06-23T09:31:30.284Z,16.13
2018-06-23T09:33:58.371Z,23.87
2018-06-23T09:36:26.507Z,16.00
2018-06-23T09:38:54.583Z,9.90
2018-06-23T09:41:22.657Z,20.70
2018-06-23T09:43:50.736Z,13.43
2018-06-23T09:46:18.834Z,13.33
2018-06-23T09:48:46.914Z,20.60
2018-06-23T09:51:15.004Z,9.40
2018-06-23T09:53:43.079Z,15.30
2018-06-23T09:56:11.203Z,8.20
2018-06-23T09:58:39.298Z,13.13
2018-06-23T10:01:07.524Z,8.90
2018-06-23T10:03:35.481Z,8.30
2018-06-23T10:06:03.576Z,6.70
2018-06-23T10:08:31.669Z,6.40
2018-06-23T10:10:59.724Z,6.13
2018-06-23T10:13:27.817Z,9.80
2018-06-23T10:15:55.919Z,10.17
2018-06-23T10:18:24.020Z,9.33
2018-06-23T10:20:52.119Z,10.83
2018-06-23T10:23:20.229Z,5.93
2018-06-23T10:25:50.193Z,11.73
2018-06-23T10:28:18.515Z,6.50
2018-06-23T10:30:46.622Z,7.40
2018-06-23T10:33:14.700Z,14.93
2018-06-23T10:35:42.767Z,5.67
2018-06-23T10:38:10.957Z,6.57
2018-06-23T10:40:38.963Z,7.30
2018-06-23T10:43:07.044Z,9.03
2018-06-23T10:45:35.116Z,6.50
2018-06-23T10:48:03.227Z,6.00
2018-06-23T10:50:32.330Z,4.47
2018-06-23T10:53:00.406Z,5.07
2018-06-23T10:55:28.496Z,12.30
2018-06-23T10:57:56.733Z,7.20
2018-06-23T11:00:24.752Z,10.50
2018-06-23T11:02:52.836Z,6.30
2018-06-23T11:05:20.907Z,6.23
2018-06-23T11:07:49.013Z,6.53
2018-06-23T11:10:17.116Z,13.90
2018-06-23T11:12:45.225Z,9.57
2018-06-23T11:15:13.332Z,11.20
2018-06-23T11:17:41.404Z,6.47
2018-06-23T11:20:09.478Z,8.30
2018-06-23T11:22:37.585Z,4.53
2018-06-23T11:25:05.668Z,4.23
2018-06-23T11:27:33.788Z,6.67
2018-06-23T11:30:01.865Z,5.60
2018-06-23T11:32:29.940Z,3.90
2018-06-23T11:34:58.079Z,6.07
2018-06-23T11:37:26.222Z,8.47
2018-06-23T11:39:54.292Z,8.37
2018-06-23T11:42:22.389Z,11.13
2018-06-23T11:44:50.460Z,5.23
2018-06-23T11:47:18.552Z,8.00
2018-06-23T11:49:46.723Z,5.33
2018-06-23T11:52:14.848Z,6.37
2018-06-23T11:54:42.895Z,5.50
2018-06-23T11:57:11.056Z,9.33
2018-06-23T11:59:39.132Z,7.87
2018-06-23T12:02:07.374Z,5.80
2018-06-23T12:04:35.449Z,3.67
2018-06-23T12:07:03.536Z,7.90
2018-06-23T12:09:31.601Z,6.90
2018-06-23T12:11:59.688Z,5.13
2018-06-23T12:14:27.881Z,8.57
2018-06-23T12:16:55.943Z,4.73
2018-06-23T12:19:24.028Z,7.23
2018-06-23T12:21:52.087Z,5.07
2018-06-23T12:24:20.164Z,5.70
2018-06-23T12:26:48.232Z,4.80
2018-06-23T12:29:16.361Z,8.20
2018-06-23T12:31:44.447Z,5.97
2018-06-23T12:34:12.544Z,5.67
2018-06-23T12:36:40.607Z,4.50
2018-06-23T12:39:09.833Z,9.30
2018-06-23T12:41:38.143Z,6.57
2018-06-23T12:44:06.396Z,6.43
2018-06-23T12:46:34.587Z,7.60
2018-06-23T12:49:02.676Z,10.03
2018-06-23T12:51:30.748Z,6.60
2018-06-23T12:53:58.912Z,8.30
2018-06-23T12:56:27.008Z,18.17
2018-06-23T12:58:55.124Z,9.83
2018-06-23T13:01:23.200Z,7.30
2018-06-23T13:03:51.332Z,5.57
2018-06-23T13:06:19.664Z,7.10
2018-06-23T13:08:47.775Z,7.13
2018-06-23T13:11:15.871Z,6.70
2018-06-23T13:13:43.984Z,7.63
2018-06-23T13:16:12.179Z,4.57
2018-06-23T13:18:40.284Z,4.30
2018-06-23T13:21:08.411Z,4.90
2018-06-23T13:23:36.505Z,6.20
2018-06-23T13:26:04.788Z,3.80
2018-06-23T13:28:32.972Z,5.73
2018-06-23T13:31:01.095Z,6.00
2018-06-23T13:33:29.216Z,4.60
2018-06-23T13:35:57.296Z,2.50
2018-06-23T13:38:25.436Z,3.70
2018-06-23T13:40:53.529Z,6.87
2018-06-23T13:43:21.666Z,2.80
2018-06-23T13:45:49.810Z,3.10
2018-06-23T13:48:17.943Z,4.93
2018-06-23T13:50:46.044Z,5.30
2018-06-23T13:53:15.188Z,5.90
2018-06-23T13:55:43.371Z,5.03
2018-06-23T13:58:11.524Z,6.33
2018-06-23T14:00:39.626Z,3.30
2018-06-23T14:03:07.735Z,5.37
2018-06-23T14:05:35.821Z,4.87
2018-06-23T14:08:03.940Z,3.67
2018-06-23T14:10:32.068Z,4.80
2018-06-23T14:13:00.276Z,2.57
2018-06-23T14:15:28.381Z,4.07
2018-06-23T14:17:56.513Z,3.97
2018-06-23T14:20:24.622Z,4.17
2018-06-23T14:22:52.731Z,2.73
2018-06-23T14:25:20.894Z,6.00
2018-06-23T14:27:48.999Z,5.03
2018-06-23T14:30:17.110Z,6.13
2018-06-23T14:32:45.218Z,5.93
2018-06-23T14:35:13.297Z,8.80
2018-06-23T14:37:41.385Z,4.23
2018-06-23T14:40:09.610Z,4.60
2018-06-23T14:42:37.650Z,4.37
2018-06-23T14:45:05.796Z,4.43
2018-06-23T14:47:33.971Z,3.90
2018-06-23T14:50:02.036Z,7.83
2018-06-23T14:52:30.139Z,4.57
2018-06-23T14:54:58.256Z,4.27
2018-06-23T14:57:26.340Z,4.00
2018-06-23T14:59:54.436Z,5.43
2018-06-23T15:02:22.683Z,5.37
2018-06-23T15:04:50.568Z,2.30
2018-06-23T15:07:18.654Z,4.20
2018-06-23T15:09:58.107Z,2.70
2018-06-23T15:12:37.676Z,4.13
2018-06-23T15:15:05.827Z,4.97
2018-06-23T15:17:33.910Z,5.30
2018-06-23T15:20:02.278Z,2.90
2018-06-23T15:22:30.403Z,3.97
2018-06-23T15:24:58.512Z,3.67
2018-06-23T15:27:26.632Z,6.10
2018-06-23T15:29:54.760Z,6.17
2018-06-23T15:32:22.868Z,3.40
2018-06-23T15:34:50.955Z,4.40
2018-06-23T15:37:18.874Z,6.13
2018-06-23T15:39:46.982Z,4.00
2018-06-23T15:42:15.086Z,3.90
2018-06-23T15:44:43.204Z,2.90
2018-06-23T15:47:22.933Z,2.60
2018-06-23T15:49:51.053Z,2.43
2018-06-23T15:52:19.195Z,5.40
2018-06-23T15:54:47.502Z,4.90
2018-06-23T15:57:15.600Z,5.03
2018-06-23T15:59:43.740Z,6.33
2018-06-23T16:02:11.899Z,4.30
2018-06-23T16:04:40.004Z,5.87
2018-06-23T16:07:08.088Z,3.80
2018-06-23T16:09:36.184Z,3.47
2018-06-23T16:12:04.292Z,3.90
2018-06-23T16:14:32.404Z,3.87
2018-06-23T16:17:00.536Z,4.33
2018-06-23T16:19:28.667Z,3.10
2018-06-23T16:21:56.804Z,6.80
2018-06-23T16:24:24.928Z,4.17
2018-06-23T16:26:53.031Z,5.47
2018-06-23T16:29:21.108Z,3.33
2018-06-23T16:31:49.207Z,5.63
2018-06-23T16:34:17.316Z,2.17
2018-06-23T16:36:45.425Z,5.57
2018-06-23T16:39:13.524Z,4.13
2018-06-23T16:41:41.671Z,5.87
2018-06-23T16:44:09.768Z,4.80
2018-06-23T16:46:38.129Z,6.23
2018-06-23T16:49:06.211Z,4.70
2018-06-23T16:51:34.110Z,5.97
2018-06-23T16:54:02.210Z,4.93
2018-06-23T16:56:30.402Z,5.90
2018-06-23T16:58:58.439Z,5.90
2018-06-23T17:01:26.648Z,3.10
2018-06-23T17:03:54.817Z,4.27
2018-06-23T17:06:22.855Z,3.77
2018-06-23T17:08:50.997Z,5.13
2018-06-23T17:11:19.204Z,4.30
2018-06-23T17:13:47.315Z,3.53
2018-06-23T17:16:15.407Z,6.23
2018-06-23T17:18:43.491Z,5.60
2018-06-23T17:21:11.600Z,3.47
2018-06-23T17:23:39.703Z,2.53
2018-06-23T17:26:07.833Z,4.70
2018-06-23T17:28:35.972Z,2.87
2018-06-23T17:31:04.095Z,3.33
2018-06-23T17:33:32.184Z,3.60
2018-06-23T17:36:00.288Z,2.80
2018-06-23T17:38:28.467Z,2.93
2018-06-23T17:40:56.574Z,3.70
2018-06-23T17:43:24.808Z,3.50
2018-06-23T17:45:53.013Z,6.90
2018-06-23T17:48:21.245Z,13.40
2018-06-23T17:50:49.422Z,4.70
2018-06-23T17:53:17.538Z,2.70
2018-06-23T17:55:45.696Z,5.57
2018-06-23T17:58:13.834Z,2.93
2018-06-23T18:00:42.029Z,2.90
2018-06-23T18:03:10.123Z,5.37
2018-06-23T18:05:38.039Z,2.83
2018-06-23T18:08:06.211Z,4.20
2018-06-23T18:10:34.357Z,5.93
2018-06-23T18:13:02.560Z,4.20
2018-06-23T18:15:30.708Z,3.20
2018-06-23T18:17:58.943Z,2.23
2018-06-23T18:20:27.149Z,2.27
2018-06-23T18:22:55.253Z,2.60
2018-06-23T18:25:23.345Z,2.40
2018-06-23T18:27:51.455Z,3.07
2018-06-23T18:30:19.635Z,3.47
2018-06-23T18:32:47.775Z,4.47
2018-06-23T18:35:15.865Z,4.60
2018-06-23T18:37:43.774Z,2.87
2018-06-23T18:40:11.868Z,4.40
2018-06-23T18:42:39.991Z,2.97
2018-06-23T18:45:08.126Z,5.07
2018-06-23T18:47:36.235Z,4.03
2018-06-23T18:50:04.726Z,3.13
2018-06-23T18:52:33.168Z,2.70
2018-06-23T18:55:01.307Z,3.87
2018-06-23T18:57:29.402Z,2.47
2018-06-23T18:59:57.479Z,5.27
2018-06-23T19:02:25.671Z,11.40
2018-06-23T19:04:53.783Z,5.60
2018-06-23T19:07:22.324Z,6.97
2018-06-23T19:09:50.468Z,5.90
2018-06-23T19:12:18.665Z,11.40
2018-06-23T19:14:46.789Z,12.23
2018-06-23T19:17:14.916Z,11.17
2018-06-23T19:19:43.058Z,8.20
2018-06-23T19:22:11.667Z,7.17
2018-06-23T19:24:39.998Z,12.90
2018-06-23T19:27:07.917Z,5.23
2018-06-23T19:29:37.609Z,7.27
2018-06-23T19:32:05.775Z,5.87
2018-06-23T19:34:34.042Z,2.87
2018-06-23T19:37:07.459Z,6.00
2018-06-23T19:39:36.129Z,2.30
2018-06-23T19:42:05.055Z,9.93
2018-06-23T19:44:33.142Z,6.40
2018-06-23T19:47:01.462Z,6.03
2018-06-23T19:49:29.562Z,6.67
2018-06-23T19:51:58.111Z,9.13
2018-06-23T19:54:26.202Z,10.60
2018-06-23T19:56:54.332Z,7.43
2018-06-23T19:59:22.451Z,10.07
2018-06-23T20:01:50.583Z,6.20
2018-06-23T20:04:18.786Z,8.20
2018-06-23T20:06:46.871Z,5.53
2018-06-23T20:09:14.981Z,7.60
2018-06-23T20:11:43.099Z,10.03
2018-06-23T20:14:11.621Z,7.23
2018-06-23T20:16:39.772Z,6.63
2018-06-23T20:19:07.902Z,12.67
2018-06-23T20:21:35.988Z,5.03
2018-06-23T20:24:04.340Z,8.43
2018-06-23T20:26:32.651Z,14.57
2018-06-23T20:29:00.752Z,8.57
2018-06-23T20:31:28.847Z,11.40
2018-06-23T20:33:56.964Z,9.97
2018-06-23T20:36:25.088Z,6.10
2018-06-23T20:38:53.224Z,9.00
2018-06-23T20:41:21.348Z,6.30
2018-06-23T20:43:49.235Z,8.03
2018-06-23T20:46:17.348Z,8.03
2018-06-23T20:48:45.476Z,14.03
2018-06-23T20:51:13.652Z,6.57
2018-06-23T20:53:41.801Z,10.50
2018-06-23T20:56:09.916Z,11.40
2018-06-23T20:58:38.011Z,7.67
2018-06-23T21:01:06.184Z,16.87
2018-06-23T21:03:34.219Z,12.57
2018-06-23T21:06:02.315Z,12.03
2018-06-23T21:08:30.405Z,14.10
2018-06-23T21:10:58.572Z,7.00
2018-06-23T21:13:26.656Z,8.27
2018-06-23T21:15:54.740Z,7.30
2018-06-23T21:18:22.812Z,18.13
2018-06-23T21:20:50.935Z,9.60
2018-06-23T21:23:19.035Z,6.73
2018-06-23T21:25:47.162Z,7.97
2018-06-23T21:28:15.516Z,9.40
2018-06-23T21:30:43.709Z,10.10
2018-06-23T21:33:11.962Z,9.03
2018-06-23T21:35:40.044Z,11.20
2018-06-23T21:38:08.172Z,10.13
2018-06-23T21:40:36.276Z,8.83
2018-06-23T21:43:04.180Z,17.63
2018-06-23T21:45:32.060Z,8.90
2018-06-23T21:48:00.183Z,14.70
2018-06-23T21:50:28.288Z,9.97
2018-06-23T21:52:56.417Z,9.23
2018-06-23T21:55:24.508Z,25.23
2018-06-23T21:57:52.579Z,8.20
2018-06-23T22:00:36.488Z,8.60
2018-06-23T22:03:05.772Z,8.70
2018-06-23T22:05:34.172Z,14.00
2018-06-23T22:08:02.275Z,9.37
2018-06-23T22:10:30.627Z,12.27
2018-06-23T22:12:58.733Z,5.30
2018-06-23T22:15:26.874Z,11.00
2018-06-23T22:17:55.181Z,12.23
2018-06-23T22:20:23.259Z,6.87
2018-06-23T22:22:52.111Z,5.60
2018-06-23T22:25:20.535Z,4.87
2018-06-23T22:27:48.419Z,7.87
2018-06-23T22:30:16.508Z,7.53
2018-06-23T22:32:44.608Z,11.83
2018-06-23T22:35:12.910Z,13.30
2018-06-23T22:37:40.887Z,13.23
2018-06-23T22:40:09.690Z,6.90
2018-06-23T22:42:37.981Z,13.23
2018-06-23T22:45:06.788Z,7.60
2018-06-23T22:47:35.283Z,12.43
2018-06-23T22:50:03.822Z,13.57
2018-06-23T22:52:32.191Z,12.97
2018-06-23T22:55:00.468Z,9.03
2018-06-23T22:57:28.621Z,12.10
2018-06-23T22:59:56.763Z,11.87
2018-06-23T23:02:24.899Z,13.80
2018-06-23T23:04:53.067Z,12.07
2018-06-23T23:07:21.235Z,16.27
2018-06-23T23:09:49.344Z,8.00
2018-06-23T23:12:17.448Z,11.67
2018-06-23T23:14:45.532Z,10.10
2018-06-23T23:17:13.612Z,16.20
2018-06-23T23:19:41.842Z,6.60
2018-06-23T23:22:09.916Z,10.40
2018-06-23T23:24:37.990Z,9.43
2018-06-23T23:27:06.072Z,11.43
2018-06-23T23:29:34.163Z,12.13
2018-06-23T23:32:02.236Z,15.30
2018-06-23T23:34:30.344Z,14.43
2018-06-23T23:36:58.475Z,8.57
2018-06-23T23:39:26.582Z,12.23
2018-06-23T23:41:54.454Z,10.37
2018-06-23T23:44:22.351Z,8.33
2018-06-23T23:46:50.218Z,12.10
2018-06-23T23:49:18.291Z,13.50
2018-06-23T23:51:46.384Z,7.17
2018-06-23T23:54:14.493Z,11.53
2018-06-23T23:56:42.595Z,15.83
2018-06-23T23:59:10.706Z,10.37
